Pagrindinis puslapis
METAR-TAF:

METAR-TAF

Oro uostai :

Chevak, Aliaska, Jungtinės Amerikos Valstijos

platuma: 61-32-27N, ilguma: 165-36-03W, Aukštis: 23 m

Dabartinis oras

Ataskaita buvo paskelbta 37 minutes, ne 03:56 UTC
Vėjas 8 kt iš Vakarų/Šiaurės Vakarų
Temperatūra 7°C
Drėgmė 70%
Slėgis 1003 hPa
Matomumas: 16.1 km
Išsisklaidę debesys ne aukštis 3800 ft

METAR: PAVA 210356Z AUTO 30008KT 10SM SCT038 07/02 A2961 RMK AO2 SLP110 T00720017 PNO $

Laikas: 20:33 (04:33 UTC)


TAF: trūkstamas

Orai ataskaitas ir orų prognozės (METAR, TAF).

turimą stotys yra geltonos ir raudonos taškus žemėlapyje.

Perkelti pele per norėdami pamatyti stoties vardą.

Tada spustelėkite, norėdami matyti oro stebėjimo ir prognozės.

Norėdami pakeisti žemėlapį: spustelėkite ant žalios mygtukų su juodo kryžiaus žemyn,; žalią mygtuką su brūkšneliu, jei norite nutolinti; arba žalių rodyklių gretimoms žemėlapius.


METAR-TAF: